sensor_id;sensor_type;location;lat;lon;timestamp;temperature;humidity
79571;DHT22;69034;49.444;7.758;2023-12-28T00:01:30;7.90;74.40
79571;DHT22;69034;49.444;7.758;2023-12-28T00:05:31;7.90;74.40
79571;DHT22;69034;49.444;7.758;2023-12-28T00:09:32;7.90;74.30
79571;DHT22;69034;49.444;7.758;2023-12-28T00:13:32;7.90;74.40
79571;DHT22;69034;49.444;7.758;2023-12-28T00:17:35;7.90;74.50
79571;DHT22;69034;49.444;7.758;2023-12-28T00:21:35;8.00;74.50
79571;DHT22;69034;49.444;7.758;2023-12-28T00:25:37;8.10;74.30
79571;DHT22;69034;49.444;7.758;2023-12-28T00:29:38;8.30;74.00
79571;DHT22;69034;49.444;7.758;2023-12-28T00:33:39;8.50;73.60
79571;DHT22;69034;49.444;7.758;2023-12-28T00:37:39;8.60;73.40
79571;DHT22;69034;49.444;7.758;2023-12-28T00:41:40;8.80;73.10
79571;DHT22;69034;49.444;7.758;2023-12-28T00:45:42;8.90;72.90
79571;DHT22;69034;49.444;7.758;2023-12-28T00:49:43;9.00;72.80
79571;DHT22;69034;49.444;7.758;2023-12-28T00:53:44;9.10;72.70
79571;DHT22;69034;49.444;7.758;2023-12-28T00:57:44;9.20;72.80
79571;DHT22;69034;49.444;7.758;2023-12-28T01:01:45;9.30;72.90
79571;DHT22;69034;49.444;7.758;2023-12-28T01:05:45;9.50;72.90
79571;DHT22;69034;49.444;7.758;2023-12-28T01:09:50;9.60;72.80
79571;DHT22;69034;49.444;7.758;2023-12-28T01:13:54;9.80;72.70
79571;DHT22;69034;49.444;7.758;2023-12-28T01:17:55;9.90;72.50
79571;DHT22;69034;49.444;7.758;2023-12-28T01:21:55;10.00;72.40
79571;DHT22;69034;49.444;7.758;2023-12-28T01:25:56;10.10;72.30
79571;DHT22;69034;49.444;7.758;2023-12-28T01:29:57;10.20;72.10
79571;DHT22;69034;49.444;7.758;2023-12-28T01:33:57;10.30;72.00
79571;DHT22;69034;49.444;7.758;2023-12-28T01:37:58;10.40;71.90
79571;DHT22;69034;49.444;7.758;2023-12-28T01:42:00;10.30;71.90
79571;DHT22;69034;49.444;7.758;2023-12-28T01:46:01;10.20;72.10
79571;DHT22;69034;49.444;7.758;2023-12-28T01:50:07;10.10;72.40
79571;DHT22;69034;49.444;7.758;2023-12-28T01:54:08;9.90;72.60
79571;DHT22;69034;49.444;7.758;2023-12-28T01:58:09;9.90;72.80
79571;DHT22;69034;49.444;7.758;2023-12-28T02:02:11;9.80;73.10
79571;DHT22;69034;49.444;7.758;2023-12-28T02:06:13;9.70;73.20
79571;DHT22;69034;49.444;7.758;2023-12-28T02:10:16;9.70;73.50
79571;DHT22;69034;49.444;7.758;2023-12-28T02:14:17;9.70;73.60
79571;DHT22;69034;49.444;7.758;2023-12-28T02:18:21;9.60;73.80
79571;DHT22;69034;49.444;7.758;2023-12-28T02:22:25;9.60;74.00
79571;DHT22;69034;49.444;7.758;2023-12-28T02:26:26;9.60;74.10
79571;DHT22;69034;49.444;7.758;2023-12-28T02:30:27;9.60;74.20
79571;DHT22;69034;49.444;7.758;2023-12-28T02:34:34;9.50;74.40
79571;DHT22;69034;49.444;7.758;2023-12-28T02:38:38;9.50;74.50
79571;DHT22;69034;49.444;7.758;2023-12-28T02:42:39;9.50;74.60
79571;DHT22;69034;49.444;7.758;2023-12-28T02:46:40;9.50;74.80
79571;DHT22;69034;49.444;7.758;2023-12-28T02:50:42;9.50;74.80
79571;DHT22;69034;49.444;7.758;2023-12-28T02:54:42;9.40;74.90
79571;DHT22;69034;49.444;7.758;2023-12-28T02:58:43;9.40;75.00
79571;DHT22;69034;49.444;7.758;2023-12-28T03:02:43;9.40;75.00
79571;DHT22;69034;49.444;7.758;2023-12-28T03:06:46;9.40;75.20
79571;DHT22;69034;49.444;7.758;2023-12-28T03:10:47;9.40;75.20
79571;DHT22;69034;49.444;7.758;2023-12-28T03:14:47;9.40;75.30
79571;DHT22;69034;49.444;7.758;2023-12-28T03:18:48;9.40;75.40
79571;DHT22;69034;49.444;7.758;2023-12-28T03:22:49;9.40;75.50
79571;DHT22;69034;49.444;7.758;2023-12-28T03:26:49;9.40;75.60
79571;DHT22;69034;49.444;7.758;2023-12-28T03:30:50;9.40;75.80
79571;DHT22;69034;49.444;7.758;2023-12-28T03:34:52;9.40;75.90
79571;DHT22;69034;49.444;7.758;2023-12-28T03:38:53;9.40;75.90
79571;DHT22;69034;49.444;7.758;2023-12-28T03:42:53;9.40;76.00
79571;DHT22;69034;49.444;7.758;2023-12-28T03:46:54;9.40;76.20
79571;DHT22;69034;49.444;7.758;2023-12-28T03:50:54;9.40;76.30
79571;DHT22;69034;49.444;7.758;2023-12-28T03:54:55;9.40;76.40
79571;DHT22;69034;49.444;7.758;2023-12-28T04:03:07;9.40;76.50
79571;DHT22;69034;49.444;7.758;2023-12-28T04:07:07;9.40;76.40
79571;DHT22;69034;49.444;7.758;2023-12-28T04:11:08;9.40;76.50
79571;DHT22;69034;49.444;7.758;2023-12-28T04:15:09;9.40;76.70
79571;DHT22;69034;49.444;7.758;2023-12-28T04:19:09;9.50;76.80
79571;DHT22;69034;49.444;7.758;2023-12-28T04:23:10;9.40;76.80
79571;DHT22;69034;49.444;7.758;2023-12-28T04:27:11;9.50;77.00
79571;DHT22;69034;49.444;7.758;2023-12-28T04:31:13;9.50;77.10
79571;DHT22;69034;49.444;7.758;2023-12-28T04:35:13;9.50;77.30
79571;DHT22;69034;49.444;7.758;2023-12-28T04:39:14;9.40;77.20
79571;DHT22;69034;49.444;7.758;2023-12-28T04:43:17;9.50;77.30
79571;DHT22;69034;49.444;7.758;2023-12-28T04:47:18;9.50;77.40
79571;DHT22;69034;49.444;7.758;2023-12-28T04:51:18;9.50;77.40
79571;DHT22;69034;49.444;7.758;2023-12-28T04:55:19;9.60;77.40
79571;DHT22;69034;49.444;7.758;2023-12-28T04:59:21;9.60;77.40
79571;DHT22;69034;49.444;7.758;2023-12-28T05:03:22;9.60;77.50
79571;DHT22;69034;49.444;7.758;2023-12-28T05:07:24;9.60;77.60
79571;DHT22;69034;49.444;7.758;2023-12-28T05:11:24;9.60;77.70
79571;DHT22;69034;49.444;7.758;2023-12-28T05:15:28;9.70;77.80
79571;DHT22;69034;49.444;7.758;2023-12-28T05:19:29;9.70;77.90
79571;DHT22;69034;49.444;7.758;2023-12-28T05:23:30;9.70;78.00
79571;DHT22;69034;49.444;7.758;2023-12-28T05:27:31;9.70;78.20
79571;DHT22;69034;49.444;7.758;2023-12-28T05:31:31;9.70;78.20
79571;DHT22;69034;49.444;7.758;2023-12-28T05:35:32;9.70;78.30
79571;DHT22;69034;49.444;7.758;2023-12-28T05:39:33;9.70;78.30
79571;DHT22;69034;49.444;7.758;2023-12-28T05:43:33;9.70;78.40
79571;DHT22;69034;49.444;7.758;2023-12-28T05:47:34;9.80;78.50
79571;DHT22;69034;49.444;7.758;2023-12-28T05:51:39;9.80;78.50
79571;DHT22;69034;49.444;7.758;2023-12-28T05:55:41;9.80;78.50
79571;DHT22;69034;49.444;7.758;2023-12-28T05:59:41;9.80;78.50
79571;DHT22;69034;49.444;7.758;2023-12-28T06:03:42;9.80;78.60
79571;DHT22;69034;49.444;7.758;2023-12-28T06:07:43;9.80;78.60
79571;DHT22;69034;49.444;7.758;2023-12-28T06:11:44;9.80;78.70
79571;DHT22;69034;49.444;7.758;2023-12-28T06:15:44;9.80;78.70
79571;DHT22;69034;49.444;7.758;2023-12-28T06:19:45;9.90;78.70
79571;DHT22;69034;49.444;7.758;2023-12-28T06:23:45;9.80;78.70
79571;DHT22;69034;49.444;7.758;2023-12-28T06:27:46;9.80;78.70
79571;DHT22;69034;49.444;7.758;2023-12-28T06:31:47;9.90;78.70
79571;DHT22;69034;49.444;7.758;2023-12-28T06:35:47;9.90;78.60
79571;DHT22;69034;49.444;7.758;2023-12-28T06:39:48;9.90;78.70
79571;DHT22;69034;49.444;7.758;2023-12-28T06:43:48;9.90;78.70
79571;DHT22;69034;49.444;7.758;2023-12-28T06:47:50;9.90;78.60
79571;DHT22;69034;49.444;7.758;2023-12-28T06:51:51;9.90;78.70
79571;DHT22;69034;49.444;7.758;2023-12-28T06:55:51;9.90;78.60
79571;DHT22;69034;49.444;7.758;2023-12-28T06:59:52;10.00;78.70
79571;DHT22;69034;49.444;7.758;2023-12-28T07:03:52;10.00;78.70
79571;DHT22;69034;49.444;7.758;2023-12-28T07:07:53;10.00;78.60
79571;DHT22;69034;49.444;7.758;2023-12-28T07:11:53;10.00;78.60
79571;DHT22;69034;49.444;7.758;2023-12-28T07:15:54;10.00;78.70
79571;DHT22;69034;49.444;7.758;2023-12-28T07:19:55;10.00;78.70
79571;DHT22;69034;49.444;7.758;2023-12-28T07:23:56;10.00;78.70
79571;DHT22;69034;49.444;7.758;2023-12-28T07:27:56;10.00;78.70
79571;DHT22;69034;49.444;7.758;2023-12-28T07:31:57;10.00;78.80
79571;DHT22;69034;49.444;7.758;2023-12-28T07:35:58;10.20;78.80
79571;DHT22;69034;49.444;7.758;2023-12-28T07:40:03;10.30;78.80
79571;DHT22;69034;49.444;7.758;2023-12-28T07:44:03;10.50;78.60
79571;DHT22;69034;49.444;7.758;2023-12-28T07:48:05;10.60;78.20
79571;DHT22;69034;49.444;7.758;2023-12-28T07:52:06;10.80;78.00
79571;DHT22;69034;49.444;7.758;2023-12-28T07:56:06;10.90;77.70
79571;DHT22;69034;49.444;7.758;2023-12-28T08:00:07;11.10;77.50
79571;DHT22;69034;49.444;7.758;2023-12-28T08:04:08;11.20;77.20
79571;DHT22;69034;49.444;7.758;2023-12-28T08:08:08;11.30;77.00
79571;DHT22;69034;49.444;7.758;2023-12-28T08:12:09;11.40;76.70
79571;DHT22;69034;49.444;7.758;2023-12-28T08:16:10;11.50;76.50
79571;DHT22;69034;49.444;7.758;2023-12-28T08:20:10;11.50;76.30
79571;DHT22;69034;49.444;7.758;2023-12-28T08:24:11;11.60;76.10
79571;DHT22;69034;49.444;7.758;2023-12-28T08:28:12;11.70;76.00
79571;DHT22;69034;49.444;7.758;2023-12-28T08:32:12;11.70;75.80
79571;DHT22;69034;49.444;7.758;2023-12-28T08:36:13;11.80;75.70
79571;DHT22;69034;49.444;7.758;2023-12-28T08:40:14;11.90;75.50
79571;DHT22;69034;49.444;7.758;2023-12-28T08:44:15;11.90;75.40
79571;DHT22;69034;49.444;7.758;2023-12-28T08:48:15;11.90;75.30
79571;DHT22;69034;49.444;7.758;2023-12-28T08:52:16;11.70;75.50
79571;DHT22;69034;49.444;7.758;2023-12-28T08:56:20;11.60;75.80
79571;DHT22;69034;49.444;7.758;2023-12-28T09:00:21;11.50;76.00
79571;DHT22;69034;49.444;7.758;2023-12-28T09:04:22;11.50;76.00
79571;DHT22;69034;49.444;7.758;2023-12-28T09:08:23;11.40;76.10
79571;DHT22;69034;49.444;7.758;2023-12-28T09:12:23;11.40;76.10
79571;DHT22;69034;49.444;7.758;2023-12-28T09:16:24;11.40;76.10
79571;DHT22;69034;49.444;7.758;2023-12-28T09:20:25;11.40;76.20
79571;DHT22;69034;49.444;7.758;2023-12-28T09:24:25;11.40;76.20
79571;DHT22;69034;49.444;7.758;2023-12-28T09:28:26;11.40;76.20
79571;DHT22;69034;49.444;7.758;2023-12-28T09:32:26;11.40;76.20
79571;DHT22;69034;49.444;7.758;2023-12-28T09:36:27;11.40;76.10
79571;DHT22;69034;49.444;7.758;2023-12-28T09:40:28;11.60;75.90
79571;DHT22;69034;49.444;7.758;2023-12-28T09:44:29;11.70;75.70
79571;DHT22;69034;49.444;7.758;2023-12-28T09:48:31;11.80;75.40
79571;DHT22;69034;49.444;7.758;2023-12-28T09:52:32;11.90;75.30
79571;DHT22;69034;49.444;7.758;2023-12-28T09:56:33;12.00;75.20
79571;DHT22;69034;49.444;7.758;2023-12-28T10:00:35;12.00;75.20
79571;DHT22;69034;49.444;7.758;2023-12-28T10:04:37;11.90;75.30
79571;DHT22;69034;49.444;7.758;2023-12-28T10:08:45;11.90;75.30
79571;DHT22;69034;49.444;7.758;2023-12-28T10:12:47;11.80;75.50
79571;DHT22;69034;49.444;7.758;2023-12-28T10:16:48;11.90;75.20
79571;DHT22;69034;49.444;7.758;2023-12-28T10:20:52;12.00;75.10
79571;DHT22;69034;49.444;7.758;2023-12-28T10:24:53;12.10;74.90
79571;DHT22;69034;49.444;7.758;2023-12-28T10:28:59;12.20;74.70
79571;DHT22;69034;49.444;7.758;2023-12-28T10:33:01;12.30;74.60
79571;DHT22;69034;49.444;7.758;2023-12-28T10:37:02;12.40;74.60
79571;DHT22;69034;49.444;7.758;2023-12-28T10:41:08;12.40;74.60
79571;DHT22;69034;49.444;7.758;2023-12-28T10:45:11;12.30;74.80
79571;DHT22;69034;49.444;7.758;2023-12-28T10:49:12;12.20;75.20
79571;DHT22;69034;49.444;7.758;2023-12-28T10:57:40;12.20;75.00
79571;DHT22;69034;49.444;7.758;2023-12-28T11:01:47;12.30;74.70
79571;DHT22;69034;49.444;7.758;2023-12-28T11:05:49;12.50;74.30
79571;DHT22;69034;49.444;7.758;2023-12-28T11:09:52;12.60;74.40
79571;DHT22;69034;49.444;7.758;2023-12-28T11:13:55;12.50;74.50
79571;DHT22;69034;49.444;7.758;2023-12-28T11:17:56;12.50;74.70
79571;DHT22;69034;49.444;7.758;2023-12-28T11:21:57;12.60;74.40
79571;DHT22;69034;49.444;7.758;2023-12-28T11:26:00;12.60;74.40
79571;DHT22;69034;49.444;7.758;2023-12-28T11:30:01;12.70;74.30
79571;DHT22;69034;49.444;7.758;2023-12-28T11:34:06;12.70;74.50
79571;DHT22;69034;49.444;7.758;2023-12-28T11:38:12;12.70;74.30
79571;DHT22;69034;49.444;7.758;2023-12-28T11:42:20;12.90;74.20
79571;DHT22;69034;49.444;7.758;2023-12-28T11:46:21;12.90;74.20
79571;DHT22;69034;49.444;7.758;2023-12-28T11:50:22;12.90;74.30
79571;DHT22;69034;49.444;7.758;2023-12-28T11:54:24;12.80;74.50
79571;DHT22;69034;49.444;7.758;2023-12-28T11:58:26;12.80;74.50
79571;DHT22;69034;49.444;7.758;2023-12-28T12:02:26;12.80;74.60
79571;DHT22;69034;49.444;7.758;2023-12-28T12:06:27;12.70;74.80
79571;DHT22;69034;49.444;7.758;2023-12-28T12:10:29;12.60;75.10
79571;DHT22;69034;49.444;7.758;2023-12-28T12:14:30;12.50;75.20
79571;DHT22;69034;49.444;7.758;2023-12-28T12:18:32;12.70;75.20
79571;DHT22;69034;49.444;7.758;2023-12-28T12:22:32;12.70;75.00
79571;DHT22;69034;49.444;7.758;2023-12-28T12:26:33;12.60;75.10
79571;DHT22;69034;49.444;7.758;2023-12-28T12:30:36;12.50;75.30
79571;DHT22;69034;49.444;7.758;2023-12-28T12:34:38;12.40;75.40
79571;DHT22;69034;49.444;7.758;2023-12-28T12:38:40;12.50;75.30
79571;DHT22;69034;49.444;7.758;2023-12-28T12:42:41;12.60;75.00
79571;DHT22;69034;49.444;7.758;2023-12-28T12:46:42;12.80;74.90
79571;DHT22;69034;49.444;7.758;2023-12-28T12:50:44;12.90;74.90
79571;DHT22;69034;49.444;7.758;2023-12-28T12:54:53;13.00;74.80
79571;DHT22;69034;49.444;7.758;2023-12-28T12:58:55;13.10;74.60
79571;DHT22;69034;49.444;7.758;2023-12-28T13:02:59;13.10;74.50
79571;DHT22;69034;49.444;7.758;2023-12-28T13:06:59;13.20;74.30
79571;DHT22;69034;49.444;7.758;2023-12-28T13:11:00;13.30;74.10
79571;DHT22;69034;49.444;7.758;2023-12-28T13:15:01;13.40;74.00
79571;DHT22;69034;49.444;7.758;2023-12-28T13:19:01;13.50;73.50
79571;DHT22;69034;49.444;7.758;2023-12-28T13:23:02;13.90;72.80
79571;DHT22;69034;49.444;7.758;2023-12-28T13:27:03;14.20;72.30
79571;DHT22;69034;49.444;7.758;2023-12-28T13:31:04;14.20;72.30
79571;DHT22;69034;49.444;7.758;2023-12-28T13:35:05;14.20;72.40
79571;DHT22;69034;49.444;7.758;2023-12-28T13:39:05;14.10;72.50
79571;DHT22;69034;49.444;7.758;2023-12-28T13:43:06;14.10;72.40
79571;DHT22;69034;49.444;7.758;2023-12-28T13:47:07;14.30;71.90
79571;DHT22;69034;49.444;7.758;2023-12-28T13:51:08;14.30;71.90
79571;DHT22;69034;49.444;7.758;2023-12-28T13:55:08;14.30;71.80
79571;DHT22;69034;49.444;7.758;2023-12-28T13:59:10;14.10;72.20
79571;DHT22;69034;49.444;7.758;2023-12-28T14:03:10;13.80;72.70
79571;DHT22;69034;49.444;7.758;2023-12-28T14:07:11;13.60;73.00
79571;DHT22;69034;49.444;7.758;2023-12-28T14:11:12;13.50;73.20
79571;DHT22;69034;49.444;7.758;2023-12-28T14:15:12;13.50;73.20
79571;DHT22;69034;49.444;7.758;2023-12-28T14:19:16;13.30;73.40
79571;DHT22;69034;49.444;7.758;2023-12-28T14:23:17;13.30;73.40
79571;DHT22;69034;49.444;7.758;2023-12-28T14:27:20;13.30;73.40
79571;DHT22;69034;49.444;7.758;2023-12-28T14:31:22;13.20;73.40
79571;DHT22;69034;49.444;7.758;2023-12-28T14:35:23;13.20;73.50
79571;DHT22;69034;49.444;7.758;2023-12-28T14:39:25;13.10;73.50
79571;DHT22;69034;49.444;7.758;2023-12-28T14:43:26;13.10;73.50
79571;DHT22;69034;49.444;7.758;2023-12-28T14:47:27;13.00;73.70
79571;DHT22;69034;49.444;7.758;2023-12-28T14:51:30;12.80;73.90
79571;DHT22;69034;49.444;7.758;2023-12-28T14:55:31;12.70;74.10
79571;DHT22;69034;49.444;7.758;2023-12-28T14:59:32;12.50;74.20
79571;DHT22;69034;49.444;7.758;2023-12-28T15:03:32;12.50;74.20
79571;DHT22;69034;49.444;7.758;2023-12-28T15:07:33;12.40;74.30
79571;DHT22;69034;49.444;7.758;2023-12-28T15:11:34;12.30;74.30
79571;DHT22;69034;49.444;7.758;2023-12-28T15:15:35;12.30;74.50
79571;DHT22;69034;49.444;7.758;2023-12-28T15:19:36;12.20;74.60
79571;DHT22;69034;49.444;7.758;2023-12-28T15:23:37;12.00;74.80
79571;DHT22;69034;49.444;7.758;2023-12-28T15:27:38;12.00;75.00
79571;DHT22;69034;49.444;7.758;2023-12-28T15:31:38;11.90;75.30
79571;DHT22;69034;49.444;7.758;2023-12-28T15:35:39;11.90;75.30
79571;DHT22;69034;49.444;7.758;2023-12-28T15:39:40;11.70;75.50
79571;DHT22;69034;49.444;7.758;2023-12-28T15:43:42;11.70;75.60
79571;DHT22;69034;49.444;7.758;2023-12-28T15:47:43;11.60;75.80
79571;DHT22;69034;49.444;7.758;2023-12-28T15:51:43;11.50;76.00
79571;DHT22;69034;49.444;7.758;2023-12-28T15:55:44;11.80;76.40
79571;DHT22;69034;49.444;7.758;2023-12-28T15:59:45;11.80;76.00
79571;DHT22;69034;49.444;7.758;2023-12-28T16:03:45;11.70;76.30
79571;DHT22;69034;49.444;7.758;2023-12-28T16:07:47;11.60;76.60
79571;DHT22;69034;49.444;7.758;2023-12-28T16:11:48;11.50;76.70
79571;DHT22;69034;49.444;7.758;2023-12-28T16:15:49;11.50;76.70
79571;DHT22;69034;49.444;7.758;2023-12-28T16:19:50;11.40;76.90
79571;DHT22;69034;49.444;7.758;2023-12-28T16:23:51;11.40;76.90
79571;DHT22;69034;49.444;7.758;2023-12-28T16:27:51;11.40;76.90
79571;DHT22;69034;49.444;7.758;2023-12-28T16:31:52;11.30;77.00
79571;DHT22;69034;49.444;7.758;2023-12-28T16:35:53;11.30;77.00
79571;DHT22;69034;49.444;7.758;2023-12-28T16:39:55;11.30;77.10
79571;DHT22;69034;49.444;7.758;2023-12-28T16:43:57;11.30;77.20
79571;DHT22;69034;49.444;7.758;2023-12-28T16:47:58;11.30;77.20
79571;DHT22;69034;49.444;7.758;2023-12-28T16:51:59;11.30;77.20
79571;DHT22;69034;49.444;7.758;2023-12-28T16:55:59;11.30;77.20
79571;DHT22;69034;49.444;7.758;2023-12-28T17:00:00;11.20;77.30
79571;DHT22;69034;49.444;7.758;2023-12-28T17:04:01;11.20;77.30
79571;DHT22;69034;49.444;7.758;2023-12-28T17:08:02;11.20;77.30
79571;DHT22;69034;49.444;7.758;2023-12-28T17:12:32;11.20;77.40
79571;DHT22;69034;49.444;7.758;2023-12-28T17:16:34;11.20;77.40
79571;DHT22;69034;49.444;7.758;2023-12-28T17:20:35;11.20;77.40
79571;DHT22;69034;49.444;7.758;2023-12-28T17:24:45;11.20;77.50
79571;DHT22;69034;49.444;7.758;2023-12-28T17:28:49;11.20;77.60
79571;DHT22;69034;49.444;7.758;2023-12-28T17:32:57;11.10;77.60
79571;DHT22;69034;49.444;7.758;2023-12-28T17:36:59;11.10;77.60
79571;DHT22;69034;49.444;7.758;2023-12-28T17:40:59;11.10;77.70
79571;DHT22;69034;49.444;7.758;2023-12-28T17:45:01;11.30;77.90
79571;DHT22;69034;49.444;7.758;2023-12-28T17:49:03;11.50;77.70
79571;DHT22;69034;49.444;7.758;2023-12-28T17:53:04;11.70;77.40
79571;DHT22;69034;49.444;7.758;2023-12-28T17:57:05;11.80;77.30
79571;DHT22;69034;49.444;7.758;2023-12-28T18:01:06;11.90;77.10
79571;DHT22;69034;49.444;7.758;2023-12-28T18:05:06;12.10;77.40
79571;DHT22;69034;49.444;7.758;2023-12-28T18:09:07;12.40;76.80
79571;DHT22;69034;49.444;7.758;2023-12-28T18:13:08;12.40;76.70
79571;DHT22;69034;49.444;7.758;2023-12-28T18:17:09;12.30;76.70
79571;DHT22;69034;49.444;7.758;2023-12-28T18:21:13;12.30;76.70
79571;DHT22;69034;49.444;7.758;2023-12-28T18:25:13;12.30;76.60
79571;DHT22;69034;49.444;7.758;2023-12-28T18:29:14;12.30;76.50
79571;DHT22;69034;49.444;7.758;2023-12-28T18:33:15;12.30;76.40
79571;DHT22;69034;49.444;7.758;2023-12-28T18:37:21;12.30;76.40
79571;DHT22;69034;49.444;7.758;2023-12-28T18:41:22;12.30;76.40
79571;DHT22;69034;49.444;7.758;2023-12-28T18:45:23;12.30;76.40
79571;DHT22;69034;49.444;7.758;2023-12-28T18:49:24;12.20;76.30
79571;DHT22;69034;49.444;7.758;2023-12-28T18:53:25;12.10;76.40
79571;DHT22;69034;49.444;7.758;2023-12-28T18:57:26;11.90;76.70
79571;DHT22;69034;49.444;7.758;2023-12-28T19:01:27;11.80;77.00
79571;DHT22;69034;49.444;7.758;2023-12-28T19:05:28;11.70;77.10
79571;DHT22;69034;49.444;7.758;2023-12-28T19:09:28;11.60;77.30
79571;DHT22;69034;49.444;7.758;2023-12-28T19:13:31;11.50;77.50
79571;DHT22;69034;49.444;7.758;2023-12-28T19:17:31;11.50;77.50
79571;DHT22;69034;49.444;7.758;2023-12-28T19:21:33;11.40;77.60
79571;DHT22;69034;49.444;7.758;2023-12-28T19:25:34;11.40;77.70
79571;DHT22;69034;49.444;7.758;2023-12-28T19:29:34;11.30;77.80
79571;DHT22;69034;49.444;7.758;2023-12-28T19:33:38;11.30;77.80
79571;DHT22;69034;49.444;7.758;2023-12-28T19:37:39;11.30;77.90
79571;DHT22;69034;49.444;7.758;2023-12-28T19:41:40;11.30;78.00
79571;DHT22;69034;49.444;7.758;2023-12-28T19:45:43;11.30;78.00
79571;DHT22;69034;49.444;7.758;2023-12-28T19:49:44;11.30;78.10
79571;DHT22;69034;49.444;7.758;2023-12-28T19:53:44;11.30;78.10
79571;DHT22;69034;49.444;7.758;2023-12-28T19:57:45;11.20;78.20
79571;DHT22;69034;49.444;7.758;2023-12-28T20:01:47;11.20;78.30
79571;DHT22;69034;49.444;7.758;2023-12-28T20:05:47;11.20;78.50
79571;DHT22;69034;49.444;7.758;2023-12-28T20:09:48;11.60;78.40
79571;DHT22;69034;49.444;7.758;2023-12-28T20:13:49;11.60;78.20
79571;DHT22;69034;49.444;7.758;2023-12-28T20:17:50;11.50;78.40
79571;DHT22;69034;49.444;7.758;2023-12-28T20:21:51;11.40;78.50
79571;DHT22;69034;49.444;7.758;2023-12-28T20:25:53;11.30;78.70
79571;DHT22;69034;49.444;7.758;2023-12-28T20:29:53;11.30;78.70
79571;DHT22;69034;49.444;7.758;2023-12-28T20:33:54;11.30;78.80
79571;DHT22;69034;49.444;7.758;2023-12-28T20:37:55;11.20;78.80
79571;DHT22;69034;49.444;7.758;2023-12-28T20:41:56;11.20;78.80
79571;DHT22;69034;49.444;7.758;2023-12-28T20:45:56;11.20;78.90
79571;DHT22;69034;49.444;7.758;2023-12-28T20:49:57;11.20;78.90
79571;DHT22;69034;49.444;7.758;2023-12-28T20:53:58;11.10;78.90
79571;DHT22;69034;49.444;7.758;2023-12-28T20:57:59;11.10;79.00
79571;DHT22;69034;49.444;7.758;2023-12-28T21:01:59;11.10;78.90
79571;DHT22;69034;49.444;7.758;2023-12-28T21:06:00;11.10;79.00
79571;DHT22;69034;49.444;7.758;2023-12-28T21:10:01;11.00;79.10
79571;DHT22;69034;49.444;7.758;2023-12-28T21:14:01;11.70;79.10
79571;DHT22;69034;49.444;7.758;2023-12-28T21:18:07;11.70;78.50
79571;DHT22;69034;49.444;7.758;2023-12-28T21:22:07;11.60;78.70
79571;DHT22;69034;49.444;7.758;2023-12-28T21:26:08;11.40;79.10
79571;DHT22;69034;49.444;7.758;2023-12-28T21:30:09;11.30;79.20
79571;DHT22;69034;49.444;7.758;2023-12-28T21:34:10;11.30;79.40
79571;DHT22;69034;49.444;7.758;2023-12-28T21:38:11;11.20;79.40
79571;DHT22;69034;49.444;7.758;2023-12-28T21:42:12;11.20;79.40
79571;DHT22;69034;49.444;7.758;2023-12-28T21:46:12;11.10;79.50
79571;DHT22;69034;49.444;7.758;2023-12-28T21:50:15;11.10;79.50
79571;DHT22;69034;49.444;7.758;2023-12-28T21:54:17;11.10;79.50
79571;DHT22;69034;49.444;7.758;2023-12-28T21:58:17;11.10;79.60
79571;DHT22;69034;49.444;7.758;2023-12-28T22:02:19;11.00;79.60
79571;DHT22;69034;49.444;7.758;2023-12-28T22:06:19;11.00;79.60
79571;DHT22;69034;49.444;7.758;2023-12-28T22:10:20;11.00;79.70
79571;DHT22;69034;49.444;7.758;2023-12-28T22:14:21;11.00;79.70
79571;DHT22;69034;49.444;7.758;2023-12-28T22:18:22;11.00;80.00
79571;DHT22;69034;49.444;7.758;2023-12-28T22:22:23;11.20;80.00
79571;DHT22;69034;49.444;7.758;2023-12-28T22:26:25;11.60;79.60
79571;DHT22;69034;49.444;7.758;2023-12-28T22:30:26;11.80;79.30
79571;DHT22;69034;49.444;7.758;2023-12-28T22:34:26;11.90;79.20
79571;DHT22;69034;49.444;7.758;2023-12-28T22:38:27;11.90;79.00
79571;DHT22;69034;49.444;7.758;2023-12-28T22:42:29;12.00;78.80
79571;DHT22;69034;49.444;7.758;2023-12-28T22:46:29;12.00;78.70
79571;DHT22;69034;49.444;7.758;2023-12-28T22:50:30;12.00;78.60
79571;DHT22;69034;49.444;7.758;2023-12-28T22:54:32;12.30;78.40
79571;DHT22;69034;49.444;7.758;2023-12-28T22:58:33;12.30;78.10
79571;DHT22;69034;49.444;7.758;2023-12-28T23:02:35;12.30;78.10
79571;DHT22;69034;49.444;7.758;2023-12-28T23:06:36;12.30;78.10
79571;DHT22;69034;49.444;7.758;2023-12-28T23:10:36;12.20;78.10
79571;DHT22;69034;49.444;7.758;2023-12-28T23:14:38;12.20;77.90
79571;DHT22;69034;49.444;7.758;2023-12-28T23:18:39;12.20;77.80
79571;DHT22;69034;49.444;7.758;2023-12-28T23:22:40;12.20;77.70
79571;DHT22;69034;49.444;7.758;2023-12-28T23:26:44;12.00;77.90
79571;DHT22;69034;49.444;7.758;2023-12-28T23:30:45;11.90;78.20
79571;DHT22;69034;49.444;7.758;2023-12-28T23:34:45;11.80;78.30
79571;DHT22;69034;49.444;7.758;2023-12-28T23:38:46;11.70;78.50
79571;DHT22;69034;49.444;7.758;2023-12-28T23:42:47;11.60;78.60
79571;DHT22;69034;49.444;7.758;2023-12-28T23:46:47;11.60;78.70
79571;DHT22;69034;49.444;7.758;2023-12-28T23:50:48;11.50;78.80
79571;DHT22;69034;49.444;7.758;2023-12-28T23:54:49;11.40;78.80
79571;DHT22;69034;49.444;7.758;2023-12-28T23:58:49;11.40;78.90
